Detroit, Michigan
Traffic Map
Current Weather Conditions
Detroit, Michigan
Overcast Haze
Overcast
50°
Feels Like: 50°
Wind Chill: 50° Ceiling: 4400
Heat Index: 50° Visibility: 6mi
Dew Point: 50° Wind: 8mph
Humidity: 100% Direction: 230° (SW)
Pressure: 29.88in Gusts: 0mph
Raw Report DataCYQG 271100Z 23007KT 6SM BR FEW010 OVC044 10/10 A2988 RMK SF2SC6 SLP122
Traffic Incident Summary
Active as of:
Severity:
Category:
InformationThere was an issue retrieving the traffic information for this location. Please try a different location or try again shortly.
Advertisements
Track Severe Weather on mobile